Adventure Us II — ZGDY5 — position and weather

sailwx.info

Track history (hours):
 
Tides and Currents Weather Stations Pressure Air Temp Water Temp Dewpoint Dewpoint Depression Visibility Wind Speed Wind Dir Waves Ship Positions

Adventure Us II

Last reported at 2018-May-15 15:14 UTC. Time now 2018-Jul-18 08:41 UTC.
Position N 40°44' W 073°58'.
Warning: this ship's position is months out of date.

Length 28 m.

Type: Pleasure craft. MMSI: 319123200.

Date/timePositionNaut miles runAvg speedWind from/ knotsBaromVisibWave heightAir tempDewpointWater temp
2018-May-15 15:14N 40°44' W 073°58'2 8.7
2018-May-15 15:00N 40°42' W 073°59'5 8.5
2018-May-15 14:27N 40°39' W 074°03'5112.6
2018-May-15 10:23N 39°48' W 074°04'513.6
2018-May-15 10:00N 39°43' W 074°06'329 7.0
2018-May-13 10:47N 34°36' W 076°37'311.5
2018-May-13 10:30N 34°39' W 076°40'4 8.3
2018-May-13 10:00N 34°43' W 076°41'1 1.4
2018-May-13 09:28N 34°43' W 076°40'0 0.0
2018-May-13 08:58N 34°43' W 076°40'0 0.0
2018-May-13 08:28N 34°43' W 076°40'0 0.0
2018-May-13 07:58N 34°43' W 076°40'0 0.0
2018-May-13 07:28N 34°43' W 076°40'0 0.0
2018-May-13 06:58N 34°43' W 076°40'0 0.0
2018-May-13 06:28N 34°43' W 076°40'0 0.0
2018-May-13 05:58N 34°43' W 076°40'0 0.0
2018-May-13 05:28N 34°43' W 076°40'0 0.0
2018-May-13 04:58N 34°43' W 076°40'0 0.0
2018-May-13 04:10N 34°43' W 076°40'0 0.0
2018-May-13 03:52N 34°43' W 076°40'0 0.0
2018-May-13 03:28N 34°43' W 076°40'0 0.0
2018-May-13 02:58N 34°43' W 076°40'0 0.0
2018-May-13 01:31N 34°43' W 076°40'0 0.1
2018-May-13 01:28N 34°43' W 076°40'0 0.0
2018-May-13 00:37N 34°43' W 076°40'0 0.0
2018-May-13 00:25N 34°43' W 076°40'0 0.0
2018-May-12 23:58N 34°43' W 076°40'0 0.0
2018-May-12 22:34N 34°43' W 076°40'0 0.0
2018-May-12 22:25N 34°43' W 076°40'0 0.0
2018-May-12 21:58N 34°43' W 076°40'0 0.0
2018-May-12 21:28N 34°43' W 076°40'0 0.0
2018-May-12 20:22N 34°43' W 076°40'0 0.0
2018-May-12 17:07N 34°43' W 076°40'0 0.0
2018-May-12 16:37N 34°43' W 076°40'0 0.0
2018-May-12 16:22N 34°43' W 076°40'0 0.0
2018-May-12 15:58N 34°43' W 076°40'0 0.0
2018-May-12 15:28N 34°43' W 076°40'0 0.0
2018-May-12 14:58N 34°43' W 076°40'0 0.0
2018-May-12 14:28N 34°43' W 076°40'0 0.0
2018-May-12 13:58N 34°43' W 076°40'0 0.0
2018-May-12 13:28N 34°43' W 076°40'2 3.4
2018-May-12 13:00N 34°41' W 076°40'5 9.6
2018-May-12 12:27N 34°36' W 076°43'  
2018-May-08 13:19N 26°13' W 080°04'412.5
2018-May-08 12:59N 26°09' W 080°05'3 6.7
2018-May-08 12:30N 26°06' W 080°07'2 4.2
2018-May-08 12:00N 26°08' W 080°06'0 0.6
2018-May-08 11:26N 26°09' W 080°07'0 0.0
2018-May-08 10:59N 26°09' W 080°07'0 0.0
2018-May-08 10:17N 26°09' W 080°07'0 0.0
2018-May-08 09:59N 26°09' W 080°07'0 0.0
2018-May-08 09:29N 26°09' W 080°07'0 0.0
2018-May-08 08:59N 26°09' W 080°07'0 0.0
2018-May-08 08:29N 26°09' W 080°07'0 0.0
2018-May-08 07:59N 26°09' W 080°07'0 0.0
2018-May-08 07:29N 26°09' W 080°07'0 0.0
2018-May-08 06:59N 26°09' W 080°07'0 0.0
2018-May-08 06:29N 26°09' W 080°07'0 0.0
2018-May-08 05:56N 26°09' W 080°07'0 0.0
2018-May-08 05:29N 26°09' W 080°07'0 0.0
2018-May-08 04:56N 26°09' W 080°07'0 0.0
2018-May-08 04:26N 26°09' W 080°07'0 0.0
2018-May-08 03:59N 26°09' W 080°07'0 0.0
2018-May-08 03:26N 26°09' W 080°07'0 0.0
2018-May-08 02:56N 26°09' W 080°07'0 0.0
2018-May-08 02:29N 26°09' W 080°07'0 0.0
2018-May-08 01:56N 26°09' W 080°07'0 0.0
2018-May-08 01:29N 26°09' W 080°07'0 0.0
2018-May-08 00:59N 26°09' W 080°07'0 0.0
2018-May-08 00:29N 26°09' W 080°07'0 0.0
2018-May-07 23:59N 26°09' W 080°07'0 0.0
2018-May-07 23:29N 26°09' W 080°07'0 0.0
2018-May-07 22:59N 26°09' W 080°07'0 0.0
2018-May-07 22:29N 26°09' W 080°07'0 0.0
2018-May-07 21:59N 26°09' W 080°07'0 0.0
2018-May-07 21:29N 26°09' W 080°07'0 0.0
2018-May-07 20:59N 26°09' W 080°07'0 0.0
2018-May-07 20:29N 26°09' W 080°07'0 0.0
2018-May-07 19:59N 26°09' W 080°07'0 0.0
2018-May-07 19:26N 26°09' W 080°07'0 0.0
2018-May-07 18:59N 26°09' W 080°07'0 0.0
2018-May-07 18:29N 26°09' W 080°07'0 0.0
2018-May-07 17:59N 26°09' W 080°07'0 0.0
2018-May-07 17:29N 26°09' W 080°07'0 0.0
2018-May-07 16:59N 26°09' W 080°07'0 0.0
2018-May-07 16:26N 26°09' W 080°07'0 0.0
2018-May-07 15:50N 26°09' W 080°07'0 0.0
2018-May-07 15:26N 26°09' W 080°07'0 0.0
2018-May-07 14:59N 26°09' W 080°07'0 0.0
2018-May-07 14:23N 26°09' W 080°07'0 0.0
2018-May-07 13:53N 26°09' W 080°07'0 0.0
2018-May-07 13:29N 26°09' W 080°07'0 0.0
2018-May-07 12:38N 26°09' W 080°07'0 0.0
2018-May-07 12:29N 26°09' W 080°07'0 0.0
2018-May-07 11:56N 26°09' W 080°07'0 0.0
2018-May-07 11:29N 26°09' W 080°07'0 0.0
2018-May-07 10:56N 26°09' W 080°07'0 0.0
2018-May-07 10:29N 26°09' W 080°07'0 0.0
2018-May-07 09:50N 26°09' W 080°07'0 0.0
2018-May-07 09:29N 26°09' W 080°07'0 0.0
2018-May-07 08:59N 26°09' W 080°07'0 0.0
2018-May-07 08:23N 26°09' W 080°07'0 0.0
2018-May-07 07:59N 26°09' W 080°07'0 0.0
2018-May-07 07:29N 26°09' W 080°07'0 0.0
2018-May-07 06:59N 26°09' W 080°07'0 0.0
2018-May-07 06:26N 26°09' W 080°07'0 0.0
2018-May-07 05:56N 26°09' W 080°07'0 0.0
2018-May-07 05:29N 26°09' W 080°07'0 0.0
2018-May-07 04:56N 26°09' W 080°07'0 0.0
2018-May-07 04:26N 26°09' W 080°07'0 0.0
2018-May-07 03:56N 26°09' W 080°07'0 0.0
2018-May-07 03:29N 26°09' W 080°07'0 0.0
2018-May-07 02:59N 26°09' W 080°07'0 0.0
2018-May-07 02:29N 26°09' W 080°07'0 0.0
2018-May-07 01:56N 26°09' W 080°07'0 0.0
2018-May-07 01:29N 26°09' W 080°07'0 0.0
2018-May-07 00:59N 26°09' W 080°07'0 0.0
2018-May-07 00:29N 26°09' W 080°07'0 0.0
2018-May-06 23:59N 26°09' W 080°07'0 0.0
2018-May-06 23:26N 26°09' W 080°07'0 0.0
2018-May-06 22:59N 26°09' W 080°07'0 0.0
2018-May-06 22:29N 26°09' W 080°07'0 0.0
2018-May-06 21:59N 26°09' W 080°07'0 0.0
2018-May-06 21:29N 26°09' W 080°07'0 0.0
2018-May-06 20:59N 26°09' W 080°07'0 0.0
2018-May-06 20:29N 26°09' W 080°07'0 0.0
2018-May-06 19:59N 26°09' W 080°07'0 0.0
2018-May-06 19:29N 26°09' W 080°07'0 0.0
2018-May-06 18:59N 26°09' W 080°07'0 0.0
2018-May-06 18:23N 26°09' W 080°07'0 0.0
2018-May-06 17:59N 26°09' W 080°07'0 0.0
2018-May-06 17:26N 26°09' W 080°07'0 0.0
2018-May-06 16:59N 26°09' W 080°07'0 0.0
2018-May-06 16:29N 26°09' W 080°07'0 0.0
2018-May-06 15:59N 26°09' W 080°07'0 0.0
2018-May-06 15:29N 26°09' W 080°07'0 0.0
2018-May-06 14:59N 26°09' W 080°07'0 0.0
2018-May-06 14:29N 26°09' W 080°07'0 0.0
2018-May-06 13:56N 26°09' W 080°07'0 0.0
2018-May-06 13:29N 26°09' W 080°07'0 0.0
2018-May-06 12:59N 26°09' W 080°07'0 0.0
2018-May-06 12:29N 26°09' W 080°07'0 0.0
2018-May-06 11:59N 26°09' W 080°07'0 0.0
2018-May-06 11:26N 26°09' W 080°07'0 0.0
2018-May-06 10:50N 26°09' W 080°07'0 0.0
2018-May-06 10:29N 26°09' W 080°07'0 0.0
2018-May-06 09:59N 26°09' W 080°07'0 0.0
2018-May-06 09:29N 26°09' W 080°07'0 0.0
2018-May-06 08:59N 26°09' W 080°07'0 0.0
2018-May-06 08:29N 26°09' W 080°07'0 0.0
2018-May-06 07:56N 26°09' W 080°07'0 0.0
2018-May-06 07:29N 26°09' W 080°07'0 0.0
2018-May-06 06:56N 26°09' W 080°07'0 0.0
2018-May-06 06:29N 26°09' W 080°07'0 0.0
2018-May-06 05:56N 26°09' W 080°07'0 0.0
2018-May-06 05:29N 26°09' W 080°07'0 0.0
2018-May-06 04:59N 26°09' W 080°07'0 0.0
2018-May-06 04:29N 26°09' W 080°07'0 0.0
2018-May-06 03:59N 26°09' W 080°07'0 0.0
2018-May-06 03:29N 26°09' W 080°07'0 0.0
2018-May-06 02:59N 26°09' W 080°07'0 0.0
2018-May-06 02:26N 26°09' W 080°07'0 0.0
2018-May-06 01:56N 26°09' W 080°07'0 0.0
2018-May-06 01:29N 26°09' W 080°07'0 0.0
2018-May-06 00:44N 26°09' W 080°07'0 0.0
2018-May-06 00:29N 26°09' W 080°07'0 0.0
2018-May-05 23:59N 26°09' W 080°07'0 0.0
2018-May-05 23:29N 26°09' W 080°07'0 0.0
2018-May-05 22:56N 26°09' W 080°07'0 0.0
2018-May-05 22:29N 26°09' W 080°07'0 0.0
2018-May-05 21:59N 26°09' W 080°07'0 0.0
2018-May-05 21:17N 26°09' W 080°07'0 0.0
2018-May-05 20:59N 26°09' W 080°07'0 0.0
2018-May-05 20:29N 26°09' W 080°07'0 0.0
2018-May-05 19:56N 26°09' W 080°07'0 0.0
2018-May-05 19:29N 26°09' W 080°07'0 0.0
2018-May-05 18:59N 26°09' W 080°07'0 0.0
2018-May-05 18:29N 26°09' W 080°07'0 0.0
2018-May-05 17:59N 26°09' W 080°07'0 0.0
2018-May-05 17:29N 26°09' W 080°07'0 0.0
2018-May-05 16:56N 26°09' W 080°07'0 0.0
2018-May-05 16:29N 26°09' W 080°07'0 0.0
2018-May-05 15:59N 26°09' W 080°07'0 0.0
2018-May-05 15:23N 26°09' W 080°07'  
Track history (hours):
 
Tides and Currents Weather Stations Pressure Air Temp Water Temp Dewpoint Dewpoint Depression Visibility Wind Speed Wind Dir Waves Ship Positions

Adventure Us II

Last reported at 2018-May-15 15:14 UTC. Time now 2018-Jul-18 08:41 UTC.
Position N 40°44' W 073°58'.
Warning: this ship's position is months out of date.

Length 28 m.

Type: Pleasure craft. MMSI: 319123200.

Date/timePositionNaut miles runAvg speedWind from/ knotsBaromVisibWave heightAir tempDewpointWater temp
2018-May-15 15:14N 40°44' W 073°58'2 8.7
2018-May-15 15:00N 40°42' W 073°59'5 8.5
2018-May-15 14:27N 40°39' W 074°03'5112.6
2018-May-15 10:23N 39°48' W 074°04'513.6
2018-May-15 10:00N 39°43' W 074°06'329 7.0
2018-May-13 10:47N 34°36' W 076°37'311.5
2018-May-13 10:30N 34°39' W 076°40'4 8.3
2018-May-13 10:00N 34°43' W 076°41'1 1.4
2018-May-13 09:28N 34°43' W 076°40'0 0.0
2018-May-13 08:58N 34°43' W 076°40'0 0.0
2018-May-13 08:28N 34°43' W 076°40'0 0.0
2018-May-13 07:58N 34°43' W 076°40'0 0.0
2018-May-13 07:28N 34°43' W 076°40'0 0.0
2018-May-13 06:58N 34°43' W 076°40'0 0.0
2018-May-13 06:28N 34°43' W 076°40'0 0.0
2018-May-13 05:58N 34°43' W 076°40'0 0.0
2018-May-13 05:28N 34°43' W 076°40'0 0.0
2018-May-13 04:58N 34°43' W 076°40'0 0.0
2018-May-13 04:10N 34°43' W 076°40'0 0.0
2018-May-13 03:52N 34°43' W 076°40'0 0.0
2018-May-13 03:28N 34°43' W 076°40'0 0.0
2018-May-13 02:58N 34°43' W 076°40'0 0.0
2018-May-13 01:31N 34°43' W 076°40'0 0.1
2018-May-13 01:28N 34°43' W 076°40'0 0.0
2018-May-13 00:37N 34°43' W 076°40'0 0.0
2018-May-13 00:25N 34°43' W 076°40'0 0.0
2018-May-12 23:58N 34°43' W 076°40'0 0.0
2018-May-12 22:34N 34°43' W 076°40'0 0.0
2018-May-12 22:25N 34°43' W 076°40'0 0.0
2018-May-12 21:58N 34°43' W 076°40'0 0.0
2018-May-12 21:28N 34°43' W 076°40'0 0.0
2018-May-12 20:22N 34°43' W 076°40'0 0.0
2018-May-12 17:07N 34°43' W 076°40'0 0.0
2018-May-12 16:37N 34°43' W 076°40'0 0.0
2018-May-12 16:22N 34°43' W 076°40'0 0.0
2018-May-12 15:58N 34°43' W 076°40'0 0.0
2018-May-12 15:28N 34°43' W 076°40'0 0.0
2018-May-12 14:58N 34°43' W 076°40'0 0.0
2018-May-12 14:28N 34°43' W 076°40'0 0.0
2018-May-12 13:58N 34°43' W 076°40'0 0.0
2018-May-12 13:28N 34°43' W 076°40'2 3.4
2018-May-12 13:00N 34°41' W 076°40'5 9.6
2018-May-12 12:27N 34°36' W 076°43'  
2018-May-08 13:19N 26°13' W 080°04'412.5
2018-May-08 12:59N 26°09' W 080°05'3 6.7
2018-May-08 12:30N 26°06' W 080°07'2 4.2
2018-May-08 12:00N 26°08' W 080°06'0 0.6
2018-May-08 11:26N 26°09' W 080°07'0 0.0
2018-May-08 10:59N 26°09' W 080°07'0 0.0
2018-May-08 10:17N 26°09' W 080°07'0 0.0
2018-May-08 09:59N 26°09' W 080°07'0 0.0
2018-May-08 09:29N 26°09' W 080°07'0 0.0
2018-May-08 08:59N 26°09' W 080°07'0 0.0
2018-May-08 08:29N 26°09' W 080°07'0 0.0
2018-May-08 07:59N 26°09' W 080°07'0 0.0
2018-May-08 07:29N 26°09' W 080°07'0 0.0
2018-May-08 06:59N 26°09' W 080°07'0 0.0
2018-May-08 06:29N 26°09' W 080°07'0 0.0
2018-May-08 05:56N 26°09' W 080°07'0 0.0
2018-May-08 05:29N 26°09' W 080°07'0 0.0
2018-May-08 04:56N 26°09' W 080°07'0 0.0
2018-May-08 04:26N 26°09' W 080°07'0 0.0
2018-May-08 03:59N 26°09' W 080°07'0 0.0
2018-May-08 03:26N 26°09' W 080°07'0 0.0
2018-May-08 02:56N 26°09' W 080°07'0 0.0
2018-May-08 02:29N 26°09' W 080°07'0 0.0
2018-May-08 01:56N 26°09' W 080°07'0 0.0
2018-May-08 01:29N 26°09' W 080°07'0 0.0
2018-May-08 00:59N 26°09' W 080°07'0 0.0
2018-May-08 00:29N 26°09' W 080°07'0 0.0
2018-May-07 23:59N 26°09' W 080°07'0 0.0
2018-May-07 23:29N 26°09' W 080°07'0 0.0
2018-May-07 22:59N 26°09' W 080°07'0 0.0
2018-May-07 22:29N 26°09' W 080°07'0 0.0
2018-May-07 21:59N 26°09' W 080°07'0 0.0
2018-May-07 21:29N 26°09' W 080°07'0 0.0
2018-May-07 20:59N 26°09' W 080°07'0 0.0
2018-May-07 20:29N 26°09' W 080°07'0 0.0
2018-May-07 19:59N 26°09' W 080°07'0 0.0
2018-May-07 19:26N 26°09' W 080°07'0 0.0
2018-May-07 18:59N 26°09' W 080°07'0 0.0
2018-May-07 18:29N 26°09' W 080°07'0 0.0
2018-May-07 17:59N 26°09' W 080°07'0 0.0
2018-May-07 17:29N 26°09' W 080°07'0 0.0
2018-May-07 16:59N 26°09' W 080°07'0 0.0
2018-May-07 16:26N 26°09' W 080°07'0 0.0
2018-May-07 15:50N 26°09' W 080°07'0 0.0
2018-May-07 15:26N 26°09' W 080°07'0 0.0
2018-May-07 14:59N 26°09' W 080°07'0 0.0
2018-May-07 14:23N 26°09' W 080°07'0 0.0
2018-May-07 13:53N 26°09' W 080°07'0 0.0
2018-May-07 13:29N 26°09' W 080°07'0 0.0
2018-May-07 12:38N 26°09' W 080°07'0 0.0
2018-May-07 12:29N 26°09' W 080°07'0 0.0
2018-May-07 11:56N 26°09' W 080°07'0 0.0
2018-May-07 11:29N 26°09' W 080°07'0 0.0
2018-May-07 10:56N 26°09' W 080°07'0 0.0
2018-May-07 10:29N 26°09' W 080°07'0 0.0
2018-May-07 09:50N 26°09' W 080°07'0 0.0
2018-May-07 09:29N 26°09' W 080°07'0 0.0
2018-May-07 08:59N 26°09' W 080°07'0 0.0
2018-May-07 08:23N 26°09' W 080°07'0 0.0
2018-May-07 07:59N 26°09' W 080°07'0 0.0
2018-May-07 07:29N 26°09' W 080°07'0 0.0
2018-May-07 06:59N 26°09' W 080°07'0 0.0
2018-May-07 06:26N 26°09' W 080°07'0 0.0
2018-May-07 05:56N 26°09' W 080°07'0 0.0
2018-May-07 05:29N 26°09' W 080°07'0 0.0
2018-May-07 04:56N 26°09' W 080°07'0 0.0
2018-May-07 04:26N 26°09' W 080°07'0 0.0
2018-May-07 03:56N 26°09' W 080°07'0 0.0
2018-May-07 03:29N 26°09' W 080°07'0 0.0
2018-May-07 02:59N 26°09' W 080°07'0 0.0
2018-May-07 02:29N 26°09' W 080°07'0 0.0
2018-May-07 01:56N 26°09' W 080°07'0 0.0
2018-May-07 01:29N 26°09' W 080°07'0 0.0
2018-May-07 00:59N 26°09' W 080°07'0 0.0
2018-May-07 00:29N 26°09' W 080°07'0 0.0
2018-May-06 23:59N 26°09' W 080°07'0 0.0
2018-May-06 23:26N 26°09' W 080°07'0 0.0
2018-May-06 22:59N 26°09' W 080°07'0 0.0
2018-May-06 22:29N 26°09' W 080°07'0 0.0
2018-May-06 21:59N 26°09' W 080°07'0 0.0
2018-May-06 21:29N 26°09' W 080°07'0 0.0
2018-May-06 20:59N 26°09' W 080°07'0 0.0
2018-May-06 20:29N 26°09' W 080°07'0 0.0
2018-May-06 19:59N 26°09' W 080°07'0 0.0
2018-May-06 19:29N 26°09' W 080°07'0 0.0
2018-May-06 18:59N 26°09' W 080°07'0 0.0
2018-May-06 18:23N 26°09' W 080°07'0 0.0
2018-May-06 17:59N 26°09' W 080°07'0 0.0
2018-May-06 17:26N 26°09' W 080°07'0 0.0
2018-May-06 16:59N 26°09' W 080°07'0 0.0
2018-May-06 16:29N 26°09' W 080°07'0 0.0
2018-May-06 15:59N 26°09' W 080°07'0 0.0
2018-May-06 15:29N 26°09' W 080°07'0 0.0
2018-May-06 14:59N 26°09' W 080°07'0 0.0
2018-May-06 14:29N 26°09' W 080°07'0 0.0
2018-May-06 13:56N 26°09' W 080°07'0 0.0
2018-May-06 13:29N 26°09' W 080°07'0 0.0
2018-May-06 12:59N 26°09' W 080°07'0 0.0
2018-May-06 12:29N 26°09' W 080°07'0 0.0
2018-May-06 11:59N 26°09' W 080°07'0 0.0
2018-May-06 11:26N 26°09' W 080°07'0 0.0
2018-May-06 10:50N 26°09' W 080°07'0 0.0
2018-May-06 10:29N 26°09' W 080°07'0 0.0
2018-May-06 09:59N 26°09' W 080°07'0 0.0
2018-May-06 09:29N 26°09' W 080°07'0 0.0
2018-May-06 08:59N 26°09' W 080°07'0 0.0
2018-May-06 08:29N 26°09' W 080°07'0 0.0
2018-May-06 07:56N 26°09' W 080°07'0 0.0
2018-May-06 07:29N 26°09' W 080°07'0 0.0
2018-May-06 06:56N 26°09' W 080°07'0 0.0
2018-May-06 06:29N 26°09' W 080°07'0 0.0
2018-May-06 05:56N 26°09' W 080°07'0 0.0
2018-May-06 05:29N 26°09' W 080°07'0 0.0
2018-May-06 04:59N 26°09' W 080°07'0 0.0
2018-May-06 04:29N 26°09' W 080°07'0 0.0
2018-May-06 03:59N 26°09' W 080°07'0 0.0
2018-May-06 03:29N 26°09' W 080°07'0 0.0
2018-May-06 02:59N 26°09' W 080°07'0 0.0
2018-May-06 02:26N 26°09' W 080°07'0 0.0
2018-May-06 01:56N 26°09' W 080°07'0 0.0
2018-May-06 01:29N 26°09' W 080°07'0 0.0
2018-May-06 00:44N 26°09' W 080°07'0 0.0
2018-May-06 00:29N 26°09' W 080°07'0 0.0
2018-May-05 23:59N 26°09' W 080°07'0 0.0
2018-May-05 23:29N 26°09' W 080°07'0 0.0
2018-May-05 22:56N 26°09' W 080°07'0 0.0
2018-May-05 22:29N 26°09' W 080°07'0 0.0
2018-May-05 21:59N 26°09' W 080°07'0 0.0
2018-May-05 21:17N 26°09' W 080°07'0 0.0
2018-May-05 20:59N 26°09' W 080°07'0 0.0
2018-May-05 20:29N 26°09' W 080°07'0 0.0
2018-May-05 19:56N 26°09' W 080°07'0 0.0
2018-May-05 19:29N 26°09' W 080°07'0 0.0
2018-May-05 18:59N 26°09' W 080°07'0 0.0
2018-May-05 18:29N 26°09' W 080°07'0 0.0
2018-May-05 17:59N 26°09' W 080°07'0 0.0
2018-May-05 17:29N 26°09' W 080°07'0 0.0
2018-May-05 16:56N 26°09' W 080°07'0 0.0
2018-May-05 16:29N 26°09' W 080°07'0 0.0
2018-May-05 15:59N 26°09' W 080°07'0 0.0
2018-May-05 15:23N 26°09' W 080°07'  

Dump ship's entire track history